Time;durP1;ratioP1;P1;durP2;ratioP2;P2;SDS_P1;SDS_P2;PMS_P1;PMS_P2;Temp;Humidity;BMP_temperature;BMP_pressure;BME280_temperature;BME280_humidity;BME280_pressure;Samples;Min_cycle;Max_cycle;Signal;HPM_P1;HPM_P2
2023/06/04 00:00:30;;;;;;;4.40;2.22;;;13.30;99.90;;;;;;4984514;28;20042;-68
2023/06/04 00:02:56;;;;;;;4.50;1.50;;;13.30;99.90;;;;;;4984193;28;20442;-69
2023/06/04 00:05:25;;;;;;;1.48;0.80;;;13.20;99.90;;;;;;5000852;28;20038;-69
2023/06/04 00:07:53;;;;;;;2.85;1.20;;;13.20;99.90;;;;;;4982748;28;20062;-70
2023/06/04 00:10:19;;;;;;;3.08;1.15;;;13.20;99.90;;;;;;4983226;28;20054;-69
2023/06/04 00:12:44;;;;;;;3.45;1.50;;;13.20;99.90;;;;;;4983338;28;20038;-72
2023/06/04 00:15:10;;;;;;;3.88;1.30;;;13.10;99.90;;;;;;4995753;28;20480;-73
2023/06/04 00:17:36;;;;;;;3.38;1.70;;;13.00;99.90;;;;;;4984720;28;20393;-72
2023/06/04 00:20:02;;;;;;;3.92;1.08;;;13.00;99.90;;;;;;4984041;28;20066;-71
2023/06/04 00:22:28;;;;;;;2.90;1.80;;;12.90;99.90;;;;;;4992020;28;20104;-72
2023/06/04 00:24:53;;;;;;;9.65;1.83;;;12.90;99.90;;;;;;4992246;28;20050;-72
2023/06/04 00:27:19;;;;;;;2.13;0.88;;;12.90;99.90;;;;;;4997818;28;20050;-71
2023/06/04 00:29:44;;;;;;;1.80;1.20;;;12.90;99.90;;;;;;4989011;28;20034;-71
2023/06/04 00:32:10;;;;;;;5.22;1.33;;;12.90;99.90;;;;;;4982843;28;20055;-71
2023/06/04 00:34:36;;;;;;;3.03;1.63;;;12.80;99.90;;;;;;4984525;28;20113;-71
2023/06/04 00:37:01;;;;;;;4.75;1.30;;;12.80;99.90;;;;;;4998149;28;20559;-72
2023/06/04 00:39:27;;;;;;;4.40;1.13;;;12.80;99.90;;;;;;4982696;28;20141;-69
2023/06/04 00:41:53;;;;;;;2.63;1.33;;;12.80;99.90;;;;;;4989458;28;20042;-69
2023/06/04 00:44:21;;;;;;;4.18;1.30;;;12.70;99.90;;;;;;5003461;28;20557;-69
2023/06/04 00:46:47;;;;;;;2.30;1.40;;;12.70;99.90;;;;;;4989866;28;20054;-69
2023/06/04 00:49:13;;;;;;;3.53;1.38;;;12.70;99.90;;;;;;4984538;28;20101;-70
2023/06/04 00:51:38;;;;;;;3.47;1.42;;;12.70;99.90;;;;;;4998201;28;20108;-70
2023/06/04 00:54:08;;;;;;;4.47;1.38;;;12.70;99.90;;;;;;4990377;28;20038;-70
2023/06/04 00:56:38;;;;;;;3.63;1.10;;;12.70;99.90;;;;;;4986702;28;20049;-70
2023/06/04 00:59:06;;;;;;;3.25;1.52;;;12.60;99.90;;;;;;4996846;28;20050;-69
2023/06/04 01:02:05;;;;;;;3.65;1.17;;;12.60;99.90;;;;;;4987772;28;20084;-69
2023/06/04 01:04:53;;;;;;;4.43;1.42;;;12.60;99.90;;;;;;4983692;28;20129;-69
2023/06/04 01:07:19;;;;;;;4.93;1.48;;;12.60;99.90;;;;;;4983217;28;20058;-70
2023/06/04 01:09:45;;;;;;;1.85;1.25;;;12.50;99.90;;;;;;4967852;28;20435;-69
2023/06/04 01:12:11;;;;;;;2.78;1.48;;;12.50;99.90;;;;;;4982819;28;20042;-70
2023/06/04 01:14:37;;;;;;;4.50;1.17;;;12.50;99.90;;;;;;5056577;22;20149;-71
2023/06/04 01:17:10;;;;;;;3.85;1.15;;;12.50;99.90;;;;;;4983244;28;20470;-71
2023/06/04 01:19:42;;;;;;;4.13;1.20;;;12.50;99.90;;;;;;4983797;28;20063;-71
2023/06/04 01:22:23;;;;;;;4.45;1.75;;;12.50;99.90;;;;;;4984112;28;20097;-72
2023/06/04 01:24:55;;;;;;;3.13;1.42;;;12.50;99.90;;;;;;4983534;28;20093;-69
2023/06/04 01:27:22;;;;;;;7.85;1.50;;;12.40;99.90;;;;;;4982824;28;20062;-70
2023/06/04 01:29:49;;;;;;;1.23;0.82;;;12.40;99.90;;;;;;4983249;28;20065;-70
2023/06/04 01:32:16;;;;;;;4.28;1.02;;;12.40;99.90;;;;;;4983638;28;20097;-70
2023/06/04 01:34:46;;;;;;;2.05;1.27;;;12.40;99.90;;;;;;4965400;28;20054;-70
2023/06/04 01:37:13;;;;;;;2.15;0.90;;;12.30;99.90;;;;;;4965810;28;20046;-69
2023/06/04 01:39:39;;;;;;;1.52;1.15;;;12.30;99.90;;;;;;4982246;28;20047;-69
2023/06/04 01:42:05;;;;;;;3.03;1.45;;;12.30;99.90;;;;;;4982662;28;20452;-69
2023/06/04 01:44:30;;;;;;;6.28;1.50;;;12.30;99.90;;;;;;4983464;28;20461;-69
2023/06/04 01:46:56;;;;;;;2.63;2.17;;;12.30;99.90;;;;;;4978340;28;20057;-69
2023/06/04 01:49:21;;;;;;;1.95;1.73;;;12.30;99.90;;;;;;4983065;28;20113;-70
2023/06/04 01:51:47;;;;;;;3.28;1.08;;;12.30;99.90;;;;;;4982893;28;20508;-70
2023/06/04 01:54:12;;;;;;;2.22;1.33;;;12.30;99.90;;;;;;4982788;28;20441;-70
2023/06/04 01:56:38;;;;;;;5.53;1.58;;;12.30;99.90;;;;;;4982973;28;20046;-70
2023/06/04 01:59:04;;;;;;;3.45;0.93;;;12.30;99.90;;;;;;4983247;28;20475;-70
2023/06/04 02:01:29;;;;;;;3.78;1.40;;;12.30;99.90;;;;;;4983497;28;20042;-70
2023/06/04 02:03:55;;;;;;;3.88;1.42;;;12.20;99.90;;;;;;4982971;28;20129;-70
2023/06/04 02:06:20;;;;;;;3.38;1.20;;;12.20;99.90;;;;;;4983358;28;20065;-69
2023/06/04 02:08:46;;;;;;;2.15;1.42;;;12.10;99.90;;;;;;4982603;28;20038;-69
2023/06/04 02:11:11;;;;;;;3.90;1.85;;;12.10;99.90;;;;;;4981272;28;20470;-70
2023/06/04 02:13:37;;;;;;;4.78;2.20;;;12.10;99.90;;;;;;4984356;28;20100;-70
2023/06/04 02:16:03;;;;;;;2.08;1.40;;;12.10;99.90;;;;;;4986296;28;20501;-69
2023/06/04 02:18:29;;;;;;;2.55;1.48;;;12.10;99.90;;;;;;4986444;28;20045;-69
2023/06/04 02:20:56;;;;;;;2.70;1.95;;;12.10;99.90;;;;;;4984984;28;20554;-69
2023/06/04 02:23:22;;;;;;;5.13;2.15;;;12.10;99.90;;;;;;4986108;28;20039;-69
2023/06/04 02:25:49;;;;;;;7.00;2.92;;;12.00;99.90;;;;;;4986364;28;20102;-69
2023/06/04 02:28:15;;;;;;;3.67;2.10;;;12.00;99.90;;;;;;4985402;28;20635;-69
2023/06/04 02:30:41;;;;;;;3.47;1.95;;;12.10;99.90;;;;;;4985117;28;20046;-70
2023/06/04 02:33:09;;;;;;;7.75;2.60;;;12.00;99.90;;;;;;4986681;28;20117;-70
2023/06/04 02:35:36;;;;;;;11.65;3.42;;;12.00;99.90;;;;;;4986491;28;20169;-69
2023/06/04 02:38:01;;;;;;;3.97;2.25;;;12.00;99.90;;;;;;4985956;28;20470;-69
2023/06/04 02:40:30;;;;;;;7.55;2.85;;;12.00;99.90;;;;;;4984809;28;20058;-70
2023/06/04 02:42:56;;;;;;;4.30;2.42;;;12.00;99.90;;;;;;4983756;28;20042;-70
2023/06/04 02:45:22;;;;;;;6.57;2.78;;;12.00;99.90;;;;;;4984876;28;20061;-70
2023/06/04 02:47:48;;;;;;;5.50;2.22;;;12.00;99.90;;;;;;4971047;28;20138;-69
2023/06/04 02:50:17;;;;;;;8.75;2.50;;;12.00;99.90;;;;;;4985862;28;20485;-69
2023/06/04 02:52:43;;;;;;;13.82;2.63;;;12.00;99.90;;;;;;4984677;28;20477;-69
2023/06/04 02:55:11;;;;;;;7.35;1.95;;;12.00;99.90;;;;;;4986116;28;20038;-69
2023/06/04 02:57:38;;;;;;;9.43;2.17;;;12.00;99.90;;;;;;4984157;28;20042;-69
2023/06/04 03:00:14;;;;;;;5.65;1.98;;;11.90;99.90;;;;;;4986148;28;20056;-70
2023/06/04 03:02:44;;;;;;;6.28;2.58;;;12.00;99.90;;;;;;4968679;28;20058;-71
2023/06/04 03:05:12;;;;;;;4.78;2.33;;;11.90;99.90;;;;;;4985978;28;20053;-70
2023/06/04 03:07:38;;;;;;;3.67;2.00;;;11.90;99.90;;;;;;4985934;28;20144;-69
2023/06/04 03:10:05;;;;;;;2.85;1.80;;;11.90;99.90;;;;;;4985658;28;20042;-69
2023/06/04 03:12:30;;;;;;;3.85;2.22;;;11.90;99.90;;;;;;4985025;28;20061;-69
2023/06/04 03:14:56;;;;;;;5.75;2.38;;;11.80;99.90;;;;;;4967843;28;20054;-69
2023/06/04 03:17:21;;;;;;;4.03;2.75;;;11.80;99.90;;;;;;4985062;28;20042;-69
2023/06/04 03:19:48;;;;;;;5.70;3.47;;;11.80;99.90;;;;;;4985411;28;20046;-69
2023/06/04 03:22:14;;;;;;;5.35;2.47;;;11.80;99.90;;;;;;4985424;28;20105;-70
2023/06/04 03:24:41;;;;;;;5.72;2.25;;;11.80;99.90;;;;;;4984673;28;20034;-70
2023/06/04 03:27:08;;;;;;;6.78;2.33;;;11.80;99.90;;;;;;4984853;28;20053;-69
2023/06/04 03:29:34;;;;;;;2.67;1.83;;;11.80;99.90;;;;;;4984335;28;20046;-69
2023/06/04 03:32:00;;;;;;;3.33;1.58;;;11.80;99.90;;;;;;4985042;28;20068;-69
2023/06/04 03:34:27;;;;;;;2.55;1.73;;;11.80;99.90;;;;;;4985441;28;20038;-69
2023/06/04 03:36:53;;;;;;;4.38;1.83;;;11.80;99.90;;;;;;4984814;28;20034;-69
2023/06/04 03:39:19;;;;;;;5.35;1.98;;;11.80;99.90;;;;;;4983848;28;20132;-69
2023/06/04 03:41:45;;;;;;;2.50;2.22;;;11.80;99.90;;;;;;4983839;28;20081;-69
2023/06/04 03:44:13;;;;;;;3.67;1.65;;;11.80;99.90;;;;;;4980463;28;20125;-70
2023/06/04 03:46:39;;;;;;;4.15;1.85;;;11.80;99.90;;;;;;4976742;28;20234;-69
2023/06/04 03:49:05;;;;;;;4.50;2.08;;;11.80;99.90;;;;;;4985498;28;20571;-69
2023/06/04 03:51:30;;;;;;;3.33;2.55;;;11.80;99.90;;;;;;4983250;28;20046;-69
2023/06/04 03:53:58;;;;;;;4.75;2.13;;;11.80;99.90;;;;;;4983345;28;20074;-69
2023/06/04 03:56:23;;;;;;;6.53;2.42;;;11.80;99.90;;;;;;4984026;28;20069;-69
2023/06/04 03:58:49;;;;;;;4.85;2.30;;;11.80;99.90;;;;;;4984237;28;20073;-69
2023/06/04 04:01:15;;;;;;;4.03;1.67;;;11.80;99.90;;;;;;4983364;28;20141;-69
2023/06/04 04:03:42;;;;;;;4.82;2.45;;;11.80;99.90;;;;;;4984696;28;20141;-70
2023/06/04 04:06:10;;;;;;;3.42;1.77;;;11.80;99.90;;;;;;4985299;28;20061;-69
2023/06/04 04:08:37;;;;;;;8.80;2.08;;;11.80;99.90;;;;;;4984956;28;20409;-69
2023/06/04 04:11:02;;;;;;;2.80;1.80;;;11.80;99.90;;;;;;4983591;28;20057;-69
2023/06/04 04:13:28;;;;;;;2.88;2.03;;;11.80;99.90;;;;;;4984180;28;20042;-70
2023/06/04 04:15:54;;;;;;;2.30;1.77;;;11.80;99.90;;;;;;4984020;28;20097;-69
2023/06/04 04:18:20;;;;;;;2.78;1.65;;;11.80;99.90;;;;;;4983950;28;20058;-69
2023/06/04 04:20:46;;;;;;;3.67;1.90;;;11.80;99.90;;;;;;4984326;28;20440;-70
2023/06/04 04:23:12;;;;;;;2.08;1.80;;;11.90;99.90;;;;;;4984162;28;20068;-69
2023/06/04 04:25:38;;;;;;;2.83;1.95;;;11.90;99.90;;;;;;4984571;28;20097;-69
2023/06/04 04:28:07;;;;;;;3.17;1.77;;;11.80;99.90;;;;;;4981827;28;20042;-70
2023/06/04 04:30:36;;;;;;;4.00;2.10;;;11.90;99.90;;;;;;4984225;28;20050;-69
2023/06/04 04:33:04;;;;;;;4.55;2.10;;;11.90;99.90;;;;;;4984218;28;20046;-69
2023/06/04 04:35:32;;;;;;;3.40;1.75;;;11.90;99.90;;;;;;4966538;28;20046;-69
2023/06/04 04:37:58;;;;;;;3.85;1.70;;;11.90;99.90;;;;;;4982526;28;20125;-69
2023/06/04 04:40:24;;;;;;;3.65;2.00;;;12.00;99.90;;;;;;4984185;28;20097;-69
2023/06/04 04:42:49;;;;;;;4.63;2.03;;;12.00;99.90;;;;;;4981266;28;20054;-69
2023/06/04 04:45:17;;;;;;;3.17;2.00;;;12.00;99.90;;;;;;4983569;28;20448;-69
2023/06/04 04:47:42;;;;;;;6.20;2.92;;;12.00;99.90;;;;;;4983476;28;20061;-69
2023/06/04 04:50:08;;;;;;;5.53;2.00;;;12.00;99.90;;;;;;4984396;28;20046;-69
2023/06/04 04:52:34;;;;;;;4.97;2.63;;;12.00;99.90;;;;;;4983823;28;20169;-69
2023/06/04 04:54:59;;;;;;;5.88;1.80;;;12.00;99.90;;;;;;5015045;28;20051;-69
2023/06/04 04:57:25;;;;;;;4.18;1.58;;;12.00;99.90;;;;;;4981421;28;20046;-69
2023/06/04 04:59:51;;;;;;;3.47;2.35;;;12.10;99.90;;;;;;4984203;28;20050;-69
2023/06/04 05:02:16;;;;;;;5.03;2.13;;;12.10;99.90;;;;;;4983629;28;20126;-70
2023/06/04 05:04:42;;;;;;;4.03;2.35;;;12.20;99.90;;;;;;4983749;28;20038;-70
2023/06/04 05:07:08;;;;;;;3.53;1.75;;;12.20;99.90;;;;;;4983213;28;20536;-70
2023/06/04 05:09:33;;;;;;;4.22;1.73;;;12.30;99.90;;;;;;4983543;28;20492;-70
2023/06/04 05:11:59;;;;;;;1.98;1.40;;;12.30;99.90;;;;;;4982670;28;20035;-70
2023/06/04 05:14:24;;;;;;;4.97;2.42;;;12.30;99.90;;;;;;4983710;28;20723;-69
2023/06/04 05:16:50;;;;;;;6.13;1.92;;;12.30;99.90;;;;;;4983476;28;20066;-70
2023/06/04 05:19:16;;;;;;;3.47;1.75;;;12.40;99.90;;;;;;4981690;28;20443;-70
2023/06/04 05:21:43;;;;;;;2.08;1.88;;;12.40;99.90;;;;;;4983424;28;20058;-70
2023/06/04 05:24:09;;;;;;;5.18;2.72;;;12.50;99.90;;;;;;4983828;28;20132;-69
2023/06/04 05:26:35;;;;;;;4.22;2.38;;;12.50;99.90;;;;;;4982979;28;20089;-69
2023/06/04 05:29:01;;;;;;;3.63;2.20;;;12.50;99.90;;;;;;5014850;28;20494;-70
2023/06/04 05:31:27;;;;;;;4.80;2.70;;;12.50;99.90;;;;;;4982250;28;20093;-70
2023/06/04 05:33:52;;;;;;;4.20;1.98;;;12.50;99.90;;;;;;4981822;28;20074;-70
2023/06/04 05:36:19;;;;;;;5.63;2.15;;;12.60;99.90;;;;;;4983174;28;20069;-69
2023/06/04 05:38:44;;;;;;;2.50;1.90;;;12.60;99.90;;;;;;4983105;28;20050;-69
2023/06/04 05:41:11;;;;;;;6.45;2.50;;;12.60;99.90;;;;;;4982511;28;20370;-70
2023/06/04 05:43:37;;;;;;;4.55;2.30;;;12.70;99.90;;;;;;4983711;28;20481;-69
2023/06/04 05:46:03;;;;;;;4.65;2.20;;;12.70;99.90;;;;;;4983169;28;20039;-69
2023/06/04 05:48:28;;;;;;;5.38;1.95;;;12.70;99.90;;;;;;4985741;28;20047;-69
2023/06/04 05:50:54;;;;;;;4.60;2.55;;;12.70;99.90;;;;;;4969478;28;20129;-69
2023/06/04 05:53:19;;;;;;;8.40;2.30;;;12.80;99.90;;;;;;4986186;28;20051;-69
2023/06/04 05:55:45;;;;;;;5.88;2.50;;;12.80;99.90;;;;;;4985915;28;20578;-69
2023/06/04 05:58:11;;;;;;;4.18;2.55;;;12.80;99.90;;;;;;4986734;28;20449;-69
2023/06/04 06:00:36;;;;;;;5.70;1.85;;;12.80;99.90;;;;;;4987586;28;20038;-69
2023/06/04 06:03:02;;;;;;;4.07;1.95;;;12.90;99.90;;;;;;4986710;28;20335;-69
2023/06/04 06:05:27;;;;;;;2.05;1.45;;;12.90;99.90;;;;;;4987043;28;20527;-70
2023/06/04 06:07:53;;;;;;;6.05;3.25;;;13.00;99.90;;;;;;4985194;28;20058;-70
2023/06/04 06:10:19;;;;;;;3.92;1.63;;;13.00;99.90;;;;;;4987049;28;20046;-70
2023/06/04 06:12:44;;;;;;;5.53;1.83;;;13.00;99.90;;;;;;4984209;28;20494;-70
2023/06/04 06:15:10;;;;;;;3.95;1.88;;;13.10;99.90;;;;;;4985513;28;20119;-71
2023/06/04 06:17:38;;;;;;;7.05;2.17;;;13.10;99.90;;;;;;4986956;28;20046;-69
2023/06/04 06:20:07;;;;;;;4.43;2.33;;;13.10;99.90;;;;;;4986315;28;20453;-70
2023/06/04 06:22:32;;;;;;;5.10;2.75;;;13.20;99.90;;;;;;4985385;28;20050;-69
2023/06/04 06:24:58;;;;;;;4.15;1.80;;;13.20;99.90;;;;;;4985714;28;20041;-69
2023/06/04 06:27:25;;;;;;;6.07;3.10;;;13.20;99.90;;;;;;4986088;28;20073;-71
2023/06/04 06:29:50;;;;;;;5.00;2.38;;;13.30;99.90;;;;;;4984809;28;20042;-71
2023/06/04 06:32:16;;;;;;;3.45;2.33;;;13.30;99.90;;;;;;4986243;28;20053;-72
2023/06/04 06:34:42;;;;;;;3.25;1.45;;;13.30;99.90;;;;;;4986260;28;20043;-72
2023/06/04 06:37:07;;;;;;;2.88;1.58;;;13.40;99.90;;;;;;4987037;28;20041;-71
2023/06/04 06:39:33;;;;;;;3.22;2.00;;;13.40;99.90;;;;;;4986011;28;20049;-73
2023/06/04 06:41:58;;;;;;;2.50;1.20;;;13.50;99.90;;;;;;4985474;28;20738;-71
2023/06/04 06:44:24;;;;;;;3.15;1.40;;;13.50;99.90;;;;;;4986537;28;20053;-72
2023/06/04 06:46:50;;;;;;;4.57;1.40;;;13.50;99.90;;;;;;4972544;28;20043;-72
2023/06/04 06:49:16;;;;;;;1.80;1.50;;;13.50;99.90;;;;;;4966902;28;20077;-70
2023/06/04 06:51:41;;;;;;;1.15;0.90;;;13.60;99.90;;;;;;4985871;28;20046;-69
2023/06/04 06:54:09;;;;;;;2.00;1.75;;;13.60;99.90;;;;;;4986302;28;20046;-69
2023/06/04 06:56:35;;;;;;;4.40;0.90;;;13.60;99.90;;;;;;4985400;28;20046;-69
2023/06/04 06:59:00;;;;;;;3.55;1.30;;;13.70;99.90;;;;;;4985139;28;20440;-70
2023/06/04 07:01:26;;;;;;;2.50;1.42;;;13.70;99.90;;;;;;4985108;28;20038;-69
2023/06/04 07:03:52;;;;;;;4.00;1.27;;;13.70;99.90;;;;;;4985721;28;20042;-70
2023/06/04 07:06:18;;;;;;;5.25;1.20;;;13.70;99.90;;;;;;4983601;28;20407;-69
2023/06/04 07:08:43;;;;;;;1.60;1.25;;;13.80;99.90;;;;;;4983872;28;20508;-69
2023/06/04 07:11:12;;;;;;;1.80;1.13;;;13.80;99.90;;;;;;4985318;28;20050;-70
2023/06/04 07:13:39;;;;;;;1.10;1.05;;;13.80;99.90;;;;;;4984743;28;20101;-71
2023/06/04 07:16:06;;;;;;;2.22;0.93;;;13.90;99.90;;;;;;4985974;28;20129;-70
2023/06/04 07:18:32;;;;;;;2.25;0.90;;;13.90;99.90;;;;;;4983360;28;20556;-71
2023/06/04 07:20:58;;;;;;;2.70;0.88;;;13.90;99.90;;;;;;4982609;28;20042;-71
2023/06/04 07:23:23;;;;;;;2.42;0.95;;;14.00;99.90;;;;;;4983281;28;20064;-71
2023/06/04 07:25:49;;;;;;;1.58;0.80;;;14.00;99.90;;;;;;4983015;28;20467;-71
2023/06/04 07:28:15;;;;;;;4.07;1.23;;;14.00;99.90;;;;;;4984788;28;20054;-71
2023/06/04 07:30:40;;;;;;;3.65;0.90;;;14.00;99.90;;;;;;4985550;28;20042;-71
2023/06/04 07:33:06;;;;;;;4.53;1.00;;;14.10;99.90;;;;;;4985699;28;20396;-71
2023/06/04 07:35:32;;;;;;;1.38;0.90;;;14.10;99.90;;;;;;4984589;28;20470;-70
2023/06/04 07:38:00;;;;;;;2.88;1.30;;;14.20;99.90;;;;;;4966768;28;20181;-70
2023/06/04 07:40:26;;;;;;;2.15;0.85;;;14.20;99.90;;;;;;4984451;28;20104;-70
2023/06/04 07:42:52;;;;;;;5.40;1.20;;;14.20;99.90;;;;;;4984588;28;20046;-72
2023/06/04 07:45:17;;;;;;;3.75;1.10;;;14.20;99.90;;;;;;4982324;28;20126;-71
2023/06/04 07:47:43;;;;;;;0.88;0.68;;;14.20;99.90;;;;;;4971933;28;20121;-71
2023/06/04 07:50:09;;;;;;;1.02;0.63;;;14.20;99.90;;;;;;4985548;28;20097;-72
2023/06/04 07:52:35;;;;;;;1.73;1.02;;;14.30;99.90;;;;;;4985634;28;20058;-71
2023/06/04 07:55:02;;;;;;;3.47;0.70;;;14.20;99.90;;;;;;4984773;28;20401;-72
2023/06/04 07:57:28;;;;;;;1.50;1.08;;;14.30;99.90;;;;;;4983201;28;20046;-71
2023/06/04 07:59:54;;;;;;;1.23;0.85;;;14.40;99.90;;;;;;4984285;28;20046;-72
2023/06/04 08:02:20;;;;;;;1.00;0.75;;;14.40;99.90;;;;;;4984956;28;20049;-71
2023/06/04 08:04:48;;;;;;;1.75;0.90;;;14.40;99.90;;;;;;4984493;28;20080;-71
2023/06/04 08:07:14;;;;;;;5.32;1.00;;;14.50;99.90;;;;;;4985238;28;20046;-71
2023/06/04 08:09:40;;;;;;;2.30;0.90;;;14.50;99.90;;;;;;4983665;28;20068;-71
2023/06/04 08:12:06;;;;;;;2.13;0.88;;;14.50;99.90;;;;;;4982742;28;20046;-71
2023/06/04 08:14:32;;;;;;;0.75;0.73;;;14.60;99.90;;;;;;4984646;28;20064;-71
2023/06/04 08:16:58;;;;;;;1.13;0.57;;;14.60;99.90;;;;;;4982840;28;20030;-72
2023/06/04 08:19:24;;;;;;;1.58;0.93;;;14.70;99.90;;;;;;4984234;28;20035;-71
2023/06/04 08:21:50;;;;;;;3.00;0.75;;;14.70;99.90;;;;;;4966945;28;20038;-72
2023/06/04 08:42:35;;;;;;;1.48;0.95;;;14.80;99.90;;;;;;5104142;27;20446;-71
2023/06/04 08:45:00;;;;;;;2.25;0.93;;;15.00;99.90;;;;;;5094269;28;20051;-70
2023/06/04 08:47:27;;;;;;;3.10;1.00;;;15.00;99.90;;;;;;5103519;28;20123;-71
2023/06/04 08:49:58;;;;;;;2.67;0.77;;;15.10;99.90;;;;;;5104566;28;20093;-71
2023/06/04 08:52:25;;;;;;;2.58;0.80;;;15.00;99.90;;;;;;5138180;27;20059;-71
2023/06/04 08:54:52;;;;;;;1.25;0.70;;;15.10;99.90;;;;;;5136955;27;20040;-71
2023/06/04 08:57:19;;;;;;;2.00;0.80;;;15.10;99.90;;;;;;5103597;28;20134;-71
2023/06/04 08:59:46;;;;;;;1.33;1.05;;;15.10;99.90;;;;;;5103932;28;20072;-70
2023/06/04 09:02:13;;;;;;;0.82;0.80;;;15.20;99.90;;;;;;5101167;28;20127;-71
2023/06/04 09:04:40;;;;;;;1.35;0.68;;;15.20;99.90;;;;;;5104053;28;20542;-72
2023/06/04 09:07:06;;;;;;;2.80;0.73;;;15.20;99.90;;;;;;5107201;28;20046;-70
2023/06/04 09:09:37;;;;;;;1.88;0.57;;;15.30;99.90;;;;;;5103499;28;20075;-71
2023/06/04 09:12:06;;;;;;;1.85;0.82;;;15.30;99.90;;;;;;5086310;28;20054;-70
2023/06/04 09:14:31;;;;;;;1.40;0.70;;;15.30;99.90;;;;;;5103473;28;20503;-71
2023/06/04 09:16:58;;;;;;;1.13;0.80;;;15.30;99.90;;;;;;5103253;28;20047;-71
2023/06/04 09:19:24;;;;;;;1.65;0.60;;;15.40;99.90;;;;;;5102418;28;20032;-70
2023/06/04 09:22:03;;;;;;;2.47;0.80;;;15.40;99.90;;;;;;5101613;28;20387;-71
2023/06/04 09:24:46;;;;;;;0.75;0.70;;;15.40;99.90;;;;;;5101397;28;20032;-70
2023/06/04 09:27:12;;;;;;;1.95;0.75;;;15.50;99.90;;;;;;5101063;28;20346;-71
2023/06/04 09:29:39;;;;;;;4.35;0.85;;;15.50;99.90;;;;;;5102052;28;20040;-70
2023/06/04 09:32:05;;;;;;;4.60;1.00;;;15.60;99.90;;;;;;5102291;28;20044;-70
2023/06/04 09:34:31;;;;;;;3.75;0.80;;;15.60;99.90;;;;;;5103164;28;20502;-70
2023/06/04 09:36:57;;;;;;;2.17;0.80;;;15.50;99.90;;;;;;5135878;27;20055;-70
2023/06/04 09:39:23;;;;;;;1.75;1.00;;;15.50;99.90;;;;;;5103090;28;20089;-77
2023/06/04 09:42:02;;;;;;;111.15;16.92;;;15.50;99.90;;;;;;5099971;28;20500;-77
2023/06/04 09:44:29;;;;;;;1.35;0.68;;;15.60;99.90;;;;;;5090737;28;20052;-69
2023/06/04 09:46:56;;;;;;;2.88;1.73;;;15.60;99.90;;;;;;5086829;28;20040;-69
2023/06/04 09:49:22;;;;;;;2.13;0.93;;;15.60;99.90;;;;;;5088234;28;20100;-71
2023/06/04 09:51:48;;;;;;;1.17;0.70;;;15.70;99.90;;;;;;5090110;28;20044;-72
2023/06/04 09:54:14;;;;;;;3.40;1.30;;;15.70;99.90;;;;;;5089083;28;20044;-70
2023/06/04 09:56:40;;;;;;;1.73;0.80;;;15.70;99.90;;;;;;5088022;28;20047;-71
2023/06/04 09:59:09;;;;;;;2.08;0.75;;;15.70;99.90;;;;;;5088714;28;20047;-71
2023/06/04 10:01:41;;;;;;;2.72;1.23;;;15.70;99.90;;;;;;5086471;28;20051;-71
2023/06/04 10:04:08;;;;;;;2.85;1.13;;;15.80;99.90;;;;;;5088193;28;20614;-71
2023/06/04 10:06:35;;;;;;;0.82;0.70;;;15.80;99.90;;;;;;5088229;28;20032;-71
2023/06/04 10:09:08;;;;;;;2.78;1.05;;;15.80;99.90;;;;;;5088836;28;20104;-71
2023/06/04 10:11:43;;;;;;;0.90;0.70;;;15.80;99.90;;;;;;5089203;28;20048;-71
2023/06/04 10:14:17;;;;;;;3.25;0.80;;;15.90;99.90;;;;;;5069847;28;20040;-71
2023/06/04 10:16:44;;;;;;;2.50;0.90;;;15.90;99.90;;;;;;5114781;27;20078;-71
2023/06/04 10:19:11;;;;;;;1.58;0.75;;;15.80;99.90;;;;;;5089463;28;20036;-71
2023/06/04 10:21:37;;;;;;;2.92;1.05;;;15.90;99.90;;;;;;5087564;28;20048;-71
2023/06/04 10:24:03;;;;;;;2.22;1.25;;;16.00;99.90;;;;;;5089247;28;20044;-71
2023/06/04 10:26:30;;;;;;;2.15;1.00;;;15.90;99.90;;;;;;5096981;28;20054;-71
2023/06/04 10:28:57;;;;;;;1.75;0.80;;;16.00;99.90;;;;;;5089254;28;20036;-71
2023/06/04 10:31:23;;;;;;;6.28;0.88;;;16.00;99.90;;;;;;5085826;28;20399;-71
2023/06/04 10:33:54;;;;;;;1.25;0.75;;;16.00;99.90;;;;;;5084208;28;20036;-69
2023/06/04 10:36:24;;;;;;;1.77;0.70;;;16.00;99.90;;;;;;5089599;28;20036;-70
2023/06/04 10:38:55;;;;;;;1.00;0.73;;;16.00;99.90;;;;;;5088613;28;20063;-70
2023/06/04 10:41:22;;;;;;;4.03;1.00;;;16.00;99.90;;;;;;5087850;28;20155;-70
2023/06/04 10:44:00;;;;;;;1.35;0.95;;;16.10;99.90;;;;;;5088619;28;20056;-71
2023/06/04 10:46:25;;;;;;;2.92;1.20;;;16.10;99.90;;;;;;5069926;28;20047;-70
2023/06/04 10:48:52;;;;;;;1.52;0.88;;;16.10;99.90;;;;;;5089343;28;20403;-71
2023/06/04 10:51:32;;;;;;;2.90;1.52;;;16.10;99.90;;;;;;5084192;28;20040;-70
2023/06/04 10:53:58;;;;;;;1.27;0.88;;;16.10;99.90;;;;;;5084441;28;20048;-76
2023/06/04 10:56:28;;;;;;;1.90;0.80;;;16.10;99.90;;;;;;5087509;28;20044;-70
2023/06/04 10:58:54;;;;;;;4.05;1.10;;;16.10;99.90;;;;;;5070506;28;20035;-71
2023/06/04 11:01:28;;;;;;;2.65;1.00;;;16.10;99.90;;;;;;5087951;28;20044;-70
2023/06/04 11:03:54;;;;;;;1.02;0.80;;;16.10;99.90;;;;;;5088677;28;20052;-71
2023/06/04 11:06:21;;;;;;;1.35;0.75;;;16.10;99.90;;;;;;5089219;28;20086;-70
2023/06/04 11:08:47;;;;;;;2.42;0.63;;;16.10;99.90;;;;;;5082703;28;20071;-71
2023/06/04 11:11:14;;;;;;;1.73;0.93;;;16.20;99.90;;;;;;5088411;28;20499;-72
2023/06/04 11:13:40;;;;;;;1.45;0.85;;;16.20;99.90;;;;;;5087280;28;20076;-71
2023/06/04 11:16:20;;;;;;;3.03;1.08;;;16.20;99.90;;;;;;5083073;28;20035;-70
2023/06/04 11:19:02;;;;;;;2.92;1.30;;;16.30;99.90;;;;;;5088458;28;20047;-70
2023/06/04 11:21:27;;;;;;;1.25;0.55;;;16.30;99.90;;;;;;5080746;28;20051;-70
2023/06/04 11:23:58;;;;;;;6.40;1.13;;;16.30;99.90;;;;;;5070599;28;20044;-71
2023/06/04 11:26:34;;;;;;;1.45;0.88;;;16.40;99.90;;;;;;5088405;28;20058;-70
2023/06/04 11:29:00;;;;;;;3.92;0.90;;;16.40;99.90;;;;;;5087432;28;20079;-70
2023/06/04 11:31:27;;;;;;;1.67;0.65;;;16.40;99.90;;;;;;5087291;28;20040;-70
2023/06/04 11:33:52;;;;;;;2.60;0.98;;;16.40;99.90;;;;;;5088693;28;20468;-72
2023/06/04 11:36:26;;;;;;;2.33;0.75;;;16.40;99.90;;;;;;5087250;28;20119;-70
2023/06/04 11:38:59;;;;;;;2.22;0.80;;;16.50;99.90;;;;;;5114025;27;20097;-70
2023/06/04 11:41:30;;;;;;;2.33;1.13;;;16.50;99.90;;;;;;5064428;28;20048;-71
2023/06/04 11:43:57;;;;;;;1.77;1.20;;;16.50;99.90;;;;;;5083942;28;20044;-71
2023/06/04 11:46:23;;;;;;;0.80;0.60;;;16.50;99.90;;;;;;5083741;28;20036;-72
2023/06/04 11:48:52;;;;;;;1.42;1.05;;;16.50;99.90;;;;;;5086209;28;20044;-72
2023/06/04 11:51:18;;;;;;;4.00;1.10;;;16.50;99.90;;;;;;5085165;28;20044;-71
2023/06/04 11:53:44;;;;;;;2.83;1.90;;;16.50;99.90;;;;;;5086961;28;20036;-71
2023/06/04 11:56:11;;;;;;;2.13;1.13;;;16.50;99.90;;;;;;5086853;28;20047;-71
2023/06/04 11:58:37;;;;;;;3.22;0.90;;;16.50;99.90;;;;;;5086722;28;20052;-74
2023/06/04 12:01:03;;;;;;;2.47;1.20;;;16.50;99.90;;;;;;5084403;28;20044;-70
2023/06/04 12:03:41;;;;;;;1.20;0.88;;;16.50;99.90;;;;;;5085258;28;20089;-70
2023/06/04 12:06:15;;;;;;;2.35;1.13;;;16.50;99.90;;;;;;5086627;28;20051;-70
2023/06/04 12:08:53;;;;;;;3.85;1.05;;;16.50;99.90;;;;;;5087428;28;20414;-70
2023/06/04 12:11:26;;;;;;;1.85;1.02;;;16.50;99.90;;;;;;5087125;28;20100;-70
2023/06/04 12:13:56;;;;;;;2.53;0.95;;;16.50;99.90;;;;;;5087699;28;20081;-70
2023/06/04 12:16:22;;;;;;;2.75;1.10;;;16.50;99.90;;;;;;5086218;28;20044;-70
2023/06/04 12:18:50;;;;;;;3.55;0.98;;;16.50;99.90;;;;;;5086286;28;20040;-71
2023/06/04 12:21:27;;;;;;;1.77;1.20;;;16.60;99.90;;;;;;5086836;28;20487;-70
2023/06/04 12:24:07;;;;;;;2.13;0.85;;;16.60;99.90;;;;;;5087764;28;20036;-71
2023/06/04 12:26:37;;;;;;;1.23;1.00;;;16.60;99.90;;;;;;5085818;28;20048;-70
2023/06/04 12:29:11;;;;;;;4.03;1.10;;;16.60;99.90;;;;;;5085809;28;20040;-71
2023/06/04 12:31:41;;;;;;;2.85;1.05;;;16.50;99.90;;;;;;5085863;28;20044;-70
2023/06/04 12:34:07;;;;;;;1.70;1.17;;;16.60;99.90;;;;;;5085869;28;20503;-70
2023/06/04 12:36:36;;;;;;;1.05;0.80;;;16.60;99.90;;;;;;5085642;28;20115;-70
2023/06/04 12:39:03;;;;;;;3.50;1.00;;;16.60;99.90;;;;;;5086947;28;20040;-71
2023/06/04 12:41:30;;;;;;;1.08;0.70;;;16.60;99.90;;;;;;5086583;28;20067;-71
2023/06/04 12:43:56;;;;;;;3.05;1.20;;;16.60;99.90;;;;;;5087153;28;20048;-71
2023/06/04 12:46:23;;;;;;;1.98;1.30;;;16.50;99.90;;;;;;5085050;28;20036;-70
2023/06/04 12:48:52;;;;;;;2.38;1.23;;;16.50;99.90;;;;;;5086942;28;20036;-70
2023/06/04 12:51:18;;;;;;;3.33;1.55;;;16.50;99.90;;;;;;5086662;28;20048;-71
2023/06/04 12:53:43;;;;;;;1.60;1.23;;;16.50;99.90;;;;;;5085570;28;20126;-70
2023/06/04 12:56:09;;;;;;;3.28;1.27;;;16.50;99.90;;;;;;5085631;28;20055;-70
2023/06/04 12:58:35;;;;;;;2.22;0.85;;;16.50;99.90;;;;;;5086825;28;20087;-70
2023/06/04 13:01:01;;;;;;;1.13;0.80;;;16.60;99.90;;;;;;5084551;28;20075;-71
2023/06/04 13:03:27;;;;;;;1.52;0.85;;;16.60;99.90;;;;;;5086324;28;20495;-70